AirNav   Free Bose QuietComfort 20
 
 1105 users online  

40FA South Campus South Lake Hospital Heliport
Clermont, Florida, USA


FAA INFORMATION EFFECTIVE 05 DECEMBER 2019

Location

FAA Identifier: 40FA
Lat/Long: 28-21-04.2724N 081-40-24.0510W
28-21.071207N 081-40.400850W
28.3511868,-81.6733475
(estimated)
Elevation: 141 ft. / 43 m (estimated)
From city: 13 miles SSE of CLERMONT, FL
Time zone: UTC -5 (UTC -4 during Daylight Saving Time)
Zip code: 34747

Heliport Operations

Heliport use: Private use. Permission required prior to landing
Activation date: 07/2018
Control tower: no
ARTCC: JACKSONVILLE CENTER
FSS: SAINT PETERSBURG FLIGHT SERVICE STATION
Attendance: 
Wind indicator: yes
Segmented circle: no

Heliport Communications

WX AWOS-3PT at ISM (13 nm E): 128.775 (407-847-0533)
WX ASOS at GIF (18 nm S): 133.675 (863-956-2097)
WX ASOS at MCO (20 nm E): PHONE 407-855-5235

Nearby radio navigation aids

VOR radial/distance  VOR name  Freq  Var
ORLr237/21.2ORLANDO VORTAC112.2000E
LALr038/28.4LAKELAND VORTAC116.0001E

Heliport Services

Runway Information

Helipad H1

Dimensions: 42 x 42 ft. / 13 x 13 m
Surface: concrete, in fair condition
Latitude: 28-21.071207N
Longitude: 081-40.400850W
Elevation: 141.0 ft.
Traffic pattern: leftleft

Heliport Ownership and Management from official FAA records

Ownership: Privately-owned
Owner: SOUTH LAKE HOSPITAL INC.
1900 DON WICKHAM DR
CLERMONT, FL 34711
Phone 352-394-4071
Manager: JOHN SCANDURA, DIR OF SUPPORT SERV
1900 DON WICKHAM DR.
CLERMONT, FL 34711
Phone 352-394-4071

Instrument Procedures

There are no published instrument procedures at 40FA.

Some nearby airports with instrument procedures:

KISM - Kissimmee Gateway Airport (13 nm E)
KGIF - Winter Haven Regional Airport (18 nm S)
KMCO - Orlando International Airport (20 nm E)
KORL - Executive Airport (21 nm NE)
X04 - Orlando Apopka Airport (22 nm N)
 
Loc | Ops | Rwys | IFR | FBO | Links
Com | Nav | Svcs | Stats | Notes
Aerial photo
No photo
 
Airport distance calculator
Flying to South Campus South Lake Hospital Heliport? Find the distance to fly.

From to 40FA

Sunrise and sunset
Times for 07-Dec-2019
 Local
(UTC-5)
 Zulu
(UTC)
Morning civil twilight06:4111:41
Sunrise07:0712:07
Sunset17:2922:29
Evening civil twilight17:5522:55

Current date and time
Zulu (UTC)  08-Dec-2019 02:24:33
Local (UTC-5)  07-Dec-2019 21:24:33
 
METAR
KISM 
13nm E 
080156Z 04006KT 10SM OVC100 20/12 A3019 RMK AO2 SLP224 T02000122
KGIF 
18nm S 
080153Z AUTO 07005KT 10SM CLR 17/13 A3019 RMK AO2 SLP220 T01720128
KMCO 
18nm E 
080153Z 02009KT 10SM SCT090 BKN110 OVC250 20/12 A3018 RMK AO2 SLP218 T02000117
KORL 
22nm NE 
080153Z 02006KT 10SM OVC100 20/12 A3018 RMK AO2 SLP225 T02000122
KBOW 
26nm S 
080155Z AUTO 07005KT 10SM CLR 17/13 A3017 RMK AO2
KZPH 
27nm W 
080155Z AUTO 04007KT 10SM OVC090 18/13 A3018 RMK A02 T01840128
TAF
KISM 
13nm E 
071739Z 0718/0818 04006KT P6SM FEW040 SCT100 SCT250 FM080000 02005KT P6SM SCT050 BKN100 FM081500 08007KT P6SM SCT035 BKN090
KMCO 
18nm E 
072051Z 0721/0824 04006KT P6SM SCT100 SCT250 FM080000 02005KT P6SM SCT070 BKN100 FM081500 08007KT P6SM SCT035 BKN090
NOTAMs
Click for the latest NOTAMs
NOTAMs are issued by the DoD/FAA and will open in a separate window not controlled by AirNav.

 

 
 

Would you like to see your business listed on this page?

 If your business provides an interesting product or service to pilots, flight crews, aircraft, or users of the South Campus South Lake Hospital Heliport, you should consider listing it here.  To start the listing process, click on the button below
 
Add a business
 

Other Pages about South Campus South Lake Hospital Heliport

Update a link
 
Copyright © AirNav, LLC. All rights reserved. Privacy Policy  Contact